sensor_id;sensor_type;location;lat;lon;timestamp;temperature;humidity
31527;DHT22;18136;42.236;-73.040;2023-05-16T00:00:53;15.30;68.60
31527;DHT22;18136;42.236;-73.040;2023-05-16T00:03:23;15.20;68.70
31527;DHT22;18136;42.236;-73.040;2023-05-16T00:05:50;15.20;69.60
31527;DHT22;18136;42.236;-73.040;2023-05-16T00:08:16;15.10;70.40
31527;DHT22;18136;42.236;-73.040;2023-05-16T00:10:43;15.10;69.80
31527;DHT22;18136;42.236;-73.040;2023-05-16T00:13:09;15.10;70.20
31527;DHT22;18136;42.236;-73.040;2023-05-16T00:15:35;15.00;70.30
31527;DHT22;18136;42.236;-73.040;2023-05-16T00:18:03;15.00;70.60
31527;DHT22;18136;42.236;-73.040;2023-05-16T00:20:29;14.90;69.80
31527;DHT22;18136;42.236;-73.040;2023-05-16T00:22:56;14.80;70.60
31527;DHT22;18136;42.236;-73.040;2023-05-16T00:25:25;14.80;70.90
31527;DHT22;18136;42.236;-73.040;2023-05-16T00:27:52;14.70;70.70
31527;DHT22;18136;42.236;-73.040;2023-05-16T00:30:18;14.70;71.30
31527;DHT22;18136;42.236;-73.040;2023-05-16T00:32:44;14.70;71.40
31527;DHT22;18136;42.236;-73.040;2023-05-16T00:35:10;14.60;71.20
31527;DHT22;18136;42.236;-73.040;2023-05-16T00:37:37;14.50;70.90
31527;DHT22;18136;42.236;-73.040;2023-05-16T00:40:04;14.50;71.10
31527;DHT22;18136;42.236;-73.040;2023-05-16T00:42:30;14.40;71.00
31527;DHT22;18136;42.236;-73.040;2023-05-16T00:44:57;14.40;71.40
31527;DHT22;18136;42.236;-73.040;2023-05-16T00:47:23;14.30;71.60
31527;DHT22;18136;42.236;-73.040;2023-05-16T00:49:49;14.30;71.80
31527;DHT22;18136;42.236;-73.040;2023-05-16T00:52:16;14.30;72.60
31527;DHT22;18136;42.236;-73.040;2023-05-16T00:54:42;14.20;72.50
31527;DHT22;18136;42.236;-73.040;2023-05-16T00:57:09;14.20;72.20
31527;DHT22;18136;42.236;-73.040;2023-05-16T00:59:35;14.10;72.30
31527;DHT22;18136;42.236;-73.040;2023-05-16T01:02:01;14.10;73.40
31527;DHT22;18136;42.236;-73.040;2023-05-16T01:04:27;14.00;74.80
31527;DHT22;18136;42.236;-73.040;2023-05-16T01:06:55;14.00;74.70
31527;DHT22;18136;42.236;-73.040;2023-05-16T01:09:21;13.90;73.80
31527;DHT22;18136;42.236;-73.040;2023-05-16T01:12:13;13.90;75.20
31527;DHT22;18136;42.236;-73.040;2023-05-16T01:14:50;13.80;76.50
31527;DHT22;18136;42.236;-73.040;2023-05-16T01:20:45;13.70;78.40
31527;DHT22;18136;42.236;-73.040;2023-05-16T01:28:40;13.60;79.10
31527;DHT22;18136;42.236;-73.040;2023-05-16T01:31:07;13.40;80.40
31527;DHT22;18136;42.236;-73.040;2023-05-16T01:33:33;13.30;79.80
31527;DHT22;18136;42.236;-73.040;2023-05-16T01:36:02;13.30;81.80
31527;DHT22;18136;42.236;-73.040;2023-05-16T01:41:41;13.10;85.00
31527;DHT22;18136;42.236;-73.040;2023-05-16T01:44:24;13.00;83.30
31527;DHT22;18136;42.236;-73.040;2023-05-16T01:46:55;12.90;82.20
31527;DHT22;18136;42.236;-73.040;2023-05-16T01:49:34;12.90;83.70
31527;DHT22;18136;42.236;-73.040;2023-05-16T01:52:06;12.90;84.30
31527;DHT22;18136;42.236;-73.040;2023-05-16T01:54:37;12.90;85.70
31527;DHT22;18136;42.236;-73.040;2023-05-16T01:57:05;12.80;83.70
31527;DHT22;18136;42.236;-73.040;2023-05-16T01:59:33;12.80;81.80
31527;DHT22;18136;42.236;-73.040;2023-05-16T02:01:59;12.70;82.30
31527;DHT22;18136;42.236;-73.040;2023-05-16T02:04:28;12.70;79.80
31527;DHT22;18136;42.236;-73.040;2023-05-16T02:06:55;12.70;81.50
31527;DHT22;18136;42.236;-73.040;2023-05-16T02:09:21;12.70;80.20
31527;DHT22;18136;42.236;-73.040;2023-05-16T02:11:47;12.70;79.20
31527;DHT22;18136;42.236;-73.040;2023-05-16T02:14:14;12.70;80.70
31527;DHT22;18136;42.236;-73.040;2023-05-16T02:16:40;12.60;79.40
31527;DHT22;18136;42.236;-73.040;2023-05-16T02:19:06;12.60;83.90
31527;DHT22;18136;42.236;-73.040;2023-05-16T02:21:32;12.60;81.30
31527;DHT22;18136;42.236;-73.040;2023-05-16T02:23:58;12.60;81.10
31527;DHT22;18136;42.236;-73.040;2023-05-16T02:26:24;12.50;80.80
31527;DHT22;18136;42.236;-73.040;2023-05-16T02:28:51;12.50;81.40
31527;DHT22;18136;42.236;-73.040;2023-05-16T02:31:29;12.40;82.70
31527;DHT22;18136;42.236;-73.040;2023-05-16T02:33:56;12.40;84.80
31527;DHT22;18136;42.236;-73.040;2023-05-16T02:36:23;12.40;83.40
31527;DHT22;18136;42.236;-73.040;2023-05-16T02:38:50;12.30;80.50
31527;DHT22;18136;42.236;-73.040;2023-05-16T02:41:16;12.30;82.80
31527;DHT22;18136;42.236;-73.040;2023-05-16T02:43:42;12.20;81.70
31527;DHT22;18136;42.236;-73.040;2023-05-16T02:46:25;12.20;83.80
31527;DHT22;18136;42.236;-73.040;2023-05-16T02:48:53;12.10;83.60
31527;DHT22;18136;42.236;-73.040;2023-05-16T02:51:20;12.10;81.40
31527;DHT22;18136;42.236;-73.040;2023-05-16T02:53:47;12.00;80.70
31527;DHT22;18136;42.236;-73.040;2023-05-16T02:56:13;12.00;82.30
31527;DHT22;18136;42.236;-73.040;2023-05-16T02:58:40;12.10;82.90
31527;DHT22;18136;42.236;-73.040;2023-05-16T03:01:07;12.00;82.50
31527;DHT22;18136;42.236;-73.040;2023-05-16T03:03:34;12.00;82.50
31527;DHT22;18136;42.236;-73.040;2023-05-16T03:06:01;12.00;81.30
31527;DHT22;18136;42.236;-73.040;2023-05-16T03:08:27;12.00;81.40
31527;DHT22;18136;42.236;-73.040;2023-05-16T03:10:53;12.00;81.20
31527;DHT22;18136;42.236;-73.040;2023-05-16T03:13:19;12.00;81.00
31527;DHT22;18136;42.236;-73.040;2023-05-16T03:15:45;12.00;81.80
31527;DHT22;18136;42.236;-73.040;2023-05-16T03:18:11;12.00;82.20
31527;DHT22;18136;42.236;-73.040;2023-05-16T03:20:37;12.00;82.10
31527;DHT22;18136;42.236;-73.040;2023-05-16T03:23:04;12.00;82.20
31527;DHT22;18136;42.236;-73.040;2023-05-16T03:25:34;12.00;82.70
31527;DHT22;18136;42.236;-73.040;2023-05-16T03:28:02;12.00;82.20
31527;DHT22;18136;42.236;-73.040;2023-05-16T03:30:28;12.00;83.50
31527;DHT22;18136;42.236;-73.040;2023-05-16T03:32:54;12.00;83.00
31527;DHT22;18136;42.236;-73.040;2023-05-16T03:35:21;12.00;82.70
31527;DHT22;18136;42.236;-73.040;2023-05-16T03:37:49;12.00;82.70
31527;DHT22;18136;42.236;-73.040;2023-05-16T03:40:17;12.00;82.80
31527;DHT22;18136;42.236;-73.040;2023-05-16T03:42:43;11.90;83.10
31527;DHT22;18136;42.236;-73.040;2023-05-16T03:45:10;11.90;83.50
31527;DHT22;18136;42.236;-73.040;2023-05-16T03:47:37;11.90;83.70
31527;DHT22;18136;42.236;-73.040;2023-05-16T03:50:03;11.80;85.00
31527;DHT22;18136;42.236;-73.040;2023-05-16T03:52:30;11.80;84.50
31527;DHT22;18136;42.236;-73.040;2023-05-16T03:54:56;11.80;84.50
31527;DHT22;18136;42.236;-73.040;2023-05-16T03:57:22;11.70;85.70
31527;DHT22;18136;42.236;-73.040;2023-05-16T03:59:48;11.70;85.00
31527;DHT22;18136;42.236;-73.040;2023-05-16T04:02:14;11.80;85.30
31527;DHT22;18136;42.236;-73.040;2023-05-16T04:04:40;11.70;85.40
31527;DHT22;18136;42.236;-73.040;2023-05-16T04:07:06;11.70;85.70
31527;DHT22;18136;42.236;-73.040;2023-05-16T04:09:33;11.60;85.90
31527;DHT22;18136;42.236;-73.040;2023-05-16T04:11:59;11.60;85.50
31527;DHT22;18136;42.236;-73.040;2023-05-16T04:14:27;11.60;85.50
31527;DHT22;18136;42.236;-73.040;2023-05-16T04:16:53;11.60;85.90
31527;DHT22;18136;42.236;-73.040;2023-05-16T04:19:20;11.50;86.40
31527;DHT22;18136;42.236;-73.040;2023-05-16T04:21:47;11.50;87.10
31527;DHT22;18136;42.236;-73.040;2023-05-16T04:24:14;11.40;86.90
31527;DHT22;18136;42.236;-73.040;2023-05-16T04:26:40;11.40;86.50
31527;DHT22;18136;42.236;-73.040;2023-05-16T04:29:06;11.30;87.40
31527;DHT22;18136;42.236;-73.040;2023-05-16T04:31:32;11.30;86.40
31527;DHT22;18136;42.236;-73.040;2023-05-16T04:33:58;11.30;87.00
31527;DHT22;18136;42.236;-73.040;2023-05-16T04:36:24;11.20;86.80
31527;DHT22;18136;42.236;-73.040;2023-05-16T04:38:55;11.20;87.30
31527;DHT22;18136;42.236;-73.040;2023-05-16T04:41:21;11.20;87.10
31527;DHT22;18136;42.236;-73.040;2023-05-16T04:43:49;11.20;87.00
31527;DHT22;18136;42.236;-73.040;2023-05-16T04:46:16;11.20;87.90
31527;DHT22;18136;42.236;-73.040;2023-05-16T04:48:42;11.20;87.60
31527;DHT22;18136;42.236;-73.040;2023-05-16T04:51:10;11.20;88.10
31527;DHT22;18136;42.236;-73.040;2023-05-16T04:53:37;11.10;87.80
31527;DHT22;18136;42.236;-73.040;2023-05-16T04:56:04;11.10;87.50
31527;DHT22;18136;42.236;-73.040;2023-05-16T04:58:30;11.10;90.20
31527;DHT22;18136;42.236;-73.040;2023-05-16T05:00:58;11.00;88.00
31527;DHT22;18136;42.236;-73.040;2023-05-16T05:03:24;11.00;87.80
31527;DHT22;18136;42.236;-73.040;2023-05-16T05:05:50;10.90;86.80
31527;DHT22;18136;42.236;-73.040;2023-05-16T05:08:17;11.00;86.30
31527;DHT22;18136;42.236;-73.040;2023-05-16T05:10:43;11.00;86.40
31527;DHT22;18136;42.236;-73.040;2023-05-16T05:13:10;11.00;85.80
31527;DHT22;18136;42.236;-73.040;2023-05-16T05:15:36;11.00;84.70
31527;DHT22;18136;42.236;-73.040;2023-05-16T05:18:03;11.00;85.20
31527;DHT22;18136;42.236;-73.040;2023-05-16T05:20:29;11.00;84.80
31527;DHT22;18136;42.236;-73.040;2023-05-16T05:22:55;11.00;83.90
31527;DHT22;18136;42.236;-73.040;2023-05-16T05:25:22;11.00;84.60
31527;DHT22;18136;42.236;-73.040;2023-05-16T05:27:48;11.00;85.00
31527;DHT22;18136;42.236;-73.040;2023-05-16T05:30:14;11.00;83.70
31527;DHT22;18136;42.236;-73.040;2023-05-16T05:32:40;11.00;84.10
31527;DHT22;18136;42.236;-73.040;2023-05-16T05:35:07;11.00;83.70
31527;DHT22;18136;42.236;-73.040;2023-05-16T05:37:33;10.90;83.40
31527;DHT22;18136;42.236;-73.040;2023-05-16T05:40:00;11.00;82.40
31527;DHT22;18136;42.236;-73.040;2023-05-16T05:42:26;11.00;82.90
31527;DHT22;18136;42.236;-73.040;2023-05-16T05:44:52;11.00;82.90
31527;DHT22;18136;42.236;-73.040;2023-05-16T05:47:18;11.00;83.10
31527;DHT22;18136;42.236;-73.040;2023-05-16T05:49:44;11.00;82.90
31527;DHT22;18136;42.236;-73.040;2023-05-16T05:52:10;11.00;82.60
31527;DHT22;18136;42.236;-73.040;2023-05-16T05:54:37;11.00;82.60
31527;DHT22;18136;42.236;-73.040;2023-05-16T05:57:03;11.00;82.40
31527;DHT22;18136;42.236;-73.040;2023-05-16T05:59:29;11.00;82.90
31527;DHT22;18136;42.236;-73.040;2023-05-16T06:01:55;10.90;82.60
31527;DHT22;18136;42.236;-73.040;2023-05-16T06:06:50;10.90;82.10
31527;DHT22;18136;42.236;-73.040;2023-05-16T06:09:16;10.90;82.30
31527;DHT22;18136;42.236;-73.040;2023-05-16T06:11:43;10.90;81.80
31527;DHT22;18136;42.236;-73.040;2023-05-16T06:14:10;10.90;81.30
31527;DHT22;18136;42.236;-73.040;2023-05-16T06:16:36;10.90;81.60
31527;DHT22;18136;42.236;-73.040;2023-05-16T06:19:05;10.90;81.40
31527;DHT22;18136;42.236;-73.040;2023-05-16T06:21:31;10.90;82.40
31527;DHT22;18136;42.236;-73.040;2023-05-16T06:23:58;10.90;81.70
31527;DHT22;18136;42.236;-73.040;2023-05-16T06:26:24;10.90;81.40
31527;DHT22;18136;42.236;-73.040;2023-05-16T06:28:50;10.90;81.00
31527;DHT22;18136;42.236;-73.040;2023-05-16T06:31:16;10.90;80.80
31527;DHT22;18136;42.236;-73.040;2023-05-16T06:33:42;10.90;79.70
31527;DHT22;18136;42.236;-73.040;2023-05-16T06:36:08;10.90;80.50
31527;DHT22;18136;42.236;-73.040;2023-05-16T06:38:34;10.90;80.70
31527;DHT22;18136;42.236;-73.040;2023-05-16T06:41:00;10.90;80.60
31527;DHT22;18136;42.236;-73.040;2023-05-16T06:43:26;10.90;80.70
31527;DHT22;18136;42.236;-73.040;2023-05-16T06:45:52;10.90;80.20
31527;DHT22;18136;42.236;-73.040;2023-05-16T06:48:18;10.90;79.20
31527;DHT22;18136;42.236;-73.040;2023-05-16T06:50:49;10.90;80.30
31527;DHT22;18136;42.236;-73.040;2023-05-16T06:53:17;10.90;80.20
31527;DHT22;18136;42.236;-73.040;2023-05-16T06:55:43;10.90;80.40
31527;DHT22;18136;42.236;-73.040;2023-05-16T06:58:10;10.90;79.90
31527;DHT22;18136;42.236;-73.040;2023-05-16T07:00:36;10.90;80.30
31527;DHT22;18136;42.236;-73.040;2023-05-16T07:03:02;10.90;79.50
31527;DHT22;18136;42.236;-73.040;2023-05-16T07:05:29;11.00;78.40
31527;DHT22;18136;42.236;-73.040;2023-05-16T07:07:55;11.00;79.50
31527;DHT22;18136;42.236;-73.040;2023-05-16T07:10:21;11.00;79.60
31527;DHT22;18136;42.236;-73.040;2023-05-16T07:12:47;11.00;79.30
31527;DHT22;18136;42.236;-73.040;2023-05-16T07:15:14;11.00;79.80
31527;DHT22;18136;42.236;-73.040;2023-05-16T07:17:40;11.00;79.60
31527;DHT22;18136;42.236;-73.040;2023-05-16T07:20:06;11.00;79.40
31527;DHT22;18136;42.236;-73.040;2023-05-16T07:22:36;11.00;79.20
31527;DHT22;18136;42.236;-73.040;2023-05-16T07:25:02;11.00;79.90
31527;DHT22;18136;42.236;-73.040;2023-05-16T07:27:29;11.00;79.50
31527;DHT22;18136;42.236;-73.040;2023-05-16T07:29:56;11.00;80.00
31527;DHT22;18136;42.236;-73.040;2023-05-16T07:32:22;10.90;78.50
31527;DHT22;18136;42.236;-73.040;2023-05-16T07:34:48;10.90;78.10
31527;DHT22;18136;42.236;-73.040;2023-05-16T07:37:14;10.90;79.20
31527;DHT22;18136;42.236;-73.040;2023-05-16T07:39:41;10.90;79.20
31527;DHT22;18136;42.236;-73.040;2023-05-16T07:42:07;10.90;79.10
31527;DHT22;18136;42.236;-73.040;2023-05-16T07:44:34;10.90;79.40
31527;DHT22;18136;42.236;-73.040;2023-05-16T07:47:01;10.90;78.60
31527;DHT22;18136;42.236;-73.040;2023-05-16T07:49:27;10.90;79.30
31527;DHT22;18136;42.236;-73.040;2023-05-16T07:51:53;10.90;79.50
31527;DHT22;18136;42.236;-73.040;2023-05-16T07:54:19;11.00;78.90
31527;DHT22;18136;42.236;-73.040;2023-05-16T07:56:45;11.00;78.10
31527;DHT22;18136;42.236;-73.040;2023-05-16T07:59:11;11.00;78.40
31527;DHT22;18136;42.236;-73.040;2023-05-16T08:01:37;11.00;79.30
31527;DHT22;18136;42.236;-73.040;2023-05-16T08:04:03;11.00;78.20
31527;DHT22;18136;42.236;-73.040;2023-05-16T08:06:29;11.00;77.90
31527;DHT22;18136;42.236;-73.040;2023-05-16T08:08:56;10.90;79.30
31527;DHT22;18136;42.236;-73.040;2023-05-16T08:11:23;11.00;79.40
31527;DHT22;18136;42.236;-73.040;2023-05-16T08:13:49;10.90;78.30
31527;DHT22;18136;42.236;-73.040;2023-05-16T08:16:15;10.90;78.90
31527;DHT22;18136;42.236;-73.040;2023-05-16T08:18:41;10.90;79.30
31527;DHT22;18136;42.236;-73.040;2023-05-16T08:21:08;10.90;78.50
31527;DHT22;18136;42.236;-73.040;2023-05-16T08:23:34;10.90;79.20
31527;DHT22;18136;42.236;-73.040;2023-05-16T08:26:01;10.90;79.30
31527;DHT22;18136;42.236;-73.040;2023-05-16T08:28:28;10.90;79.90
31527;DHT22;18136;42.236;-73.040;2023-05-16T08:30:54;10.90;79.10
31527;DHT22;18136;42.236;-73.040;2023-05-16T08:33:21;10.90;79.60
31527;DHT22;18136;42.236;-73.040;2023-05-16T08:35:47;10.90;78.60
31527;DHT22;18136;42.236;-73.040;2023-05-16T08:38:14;10.90;78.90
31527;DHT22;18136;42.236;-73.040;2023-05-16T08:40:41;10.90;78.80
31527;DHT22;18136;42.236;-73.040;2023-05-16T08:43:07;10.80;78.70
31527;DHT22;18136;42.236;-73.040;2023-05-16T08:45:34;10.80;78.80
31527;DHT22;18136;42.236;-73.040;2023-05-16T08:48:00;10.90;79.80
31527;DHT22;18136;42.236;-73.040;2023-05-16T08:50:31;10.80;79.20
31527;DHT22;18136;42.236;-73.040;2023-05-16T08:52:57;10.80;78.40
31527;DHT22;18136;42.236;-73.040;2023-05-16T08:55:28;10.80;78.90
31527;DHT22;18136;42.236;-73.040;2023-05-16T08:57:54;10.80;77.80
31527;DHT22;18136;42.236;-73.040;2023-05-16T09:00:21;10.90;78.40
31527;DHT22;18136;42.236;-73.040;2023-05-16T09:02:48;10.90;78.60
31527;DHT22;18136;42.236;-73.040;2023-05-16T09:05:16;10.80;78.50
31527;DHT22;18136;42.236;-73.040;2023-05-16T09:07:43;10.80;78.00
31527;DHT22;18136;42.236;-73.040;2023-05-16T09:10:10;10.80;77.80
31527;DHT22;18136;42.236;-73.040;2023-05-16T09:12:39;10.80;78.40
31527;DHT22;18136;42.236;-73.040;2023-05-16T09:15:10;10.80;78.00
31527;DHT22;18136;42.236;-73.040;2023-05-16T09:17:38;10.80;78.50
31527;DHT22;18136;42.236;-73.040;2023-05-16T09:20:15;10.80;78.10
31527;DHT22;18136;42.236;-73.040;2023-05-16T09:22:55;10.80;78.60
31527;DHT22;18136;42.236;-73.040;2023-05-16T09:25:24;10.80;79.00
31527;DHT22;18136;42.236;-73.040;2023-05-16T09:27:54;10.80;78.20
31527;DHT22;18136;42.236;-73.040;2023-05-16T09:30:29;10.80;78.70
31527;DHT22;18136;42.236;-73.040;2023-05-16T09:32:57;10.80;78.50
31527;DHT22;18136;42.236;-73.040;2023-05-16T09:35:24;10.80;78.90
31527;DHT22;18136;42.236;-73.040;2023-05-16T09:37:50;10.80;78.70
31527;DHT22;18136;42.236;-73.040;2023-05-16T09:40:22;10.70;78.50
31527;DHT22;18136;42.236;-73.040;2023-05-16T09:43:03;10.80;79.00
31527;DHT22;18136;42.236;-73.040;2023-05-16T09:45:31;10.70;78.60
31527;DHT22;18136;42.236;-73.040;2023-05-16T09:48:04;10.70;78.40
31527;DHT22;18136;42.236;-73.040;2023-05-16T09:50:32;10.70;78.70
31527;DHT22;18136;42.236;-73.040;2023-05-16T09:53:00;10.70;79.20
31527;DHT22;18136;42.236;-73.040;2023-05-16T09:55:30;10.70;78.00
31527;DHT22;18136;42.236;-73.040;2023-05-16T09:57:57;10.70;78.30
31527;DHT22;18136;42.236;-73.040;2023-05-16T10:00:31;10.70;78.80
31527;DHT22;18136;42.236;-73.040;2023-05-16T10:02:59;10.70;78.70
31527;DHT22;18136;42.236;-73.040;2023-05-16T10:05:27;10.70;79.30
31527;DHT22;18136;42.236;-73.040;2023-05-16T10:07:55;10.70;79.50
31527;DHT22;18136;42.236;-73.040;2023-05-16T10:10:23;10.70;78.80
31527;DHT22;18136;42.236;-73.040;2023-05-16T10:12:50;10.70;78.80
31527;DHT22;18136;42.236;-73.040;2023-05-16T10:15:19;10.70;77.90
31527;DHT22;18136;42.236;-73.040;2023-05-16T10:17:49;10.70;77.90
31527;DHT22;18136;42.236;-73.040;2023-05-16T10:20:17;10.70;78.00
31527;DHT22;18136;42.236;-73.040;2023-05-16T10:22:46;10.70;78.40
31527;DHT22;18136;42.236;-73.040;2023-05-16T10:25:33;10.70;78.70
31527;DHT22;18136;42.236;-73.040;2023-05-16T10:28:02;10.70;78.50
31527;DHT22;18136;42.236;-73.040;2023-05-16T10:30:32;10.80;78.00
31527;DHT22;18136;42.236;-73.040;2023-05-16T10:32:58;10.80;77.80
31527;DHT22;18136;42.236;-73.040;2023-05-16T10:35:26;10.70;78.40
31527;DHT22;18136;42.236;-73.040;2023-05-16T10:37:52;10.80;77.80
31527;DHT22;18136;42.236;-73.040;2023-05-16T10:40:19;10.70;78.30
31527;DHT22;18136;42.236;-73.040;2023-05-16T10:43:00;10.70;77.10
31527;DHT22;18136;42.236;-73.040;2023-05-16T10:45:26;10.80;78.80
31527;DHT22;18136;42.236;-73.040;2023-05-16T10:48:00;10.80;79.40
31527;DHT22;18136;42.236;-73.040;2023-05-16T10:53:34;10.80;78.50
31527;DHT22;18136;42.236;-73.040;2023-05-16T11:01:42;10.80;78.50
31527;DHT22;18136;42.236;-73.040;2023-05-16T11:04:14;10.80;77.40
31527;DHT22;18136;42.236;-73.040;2023-05-16T11:06:45;10.90;79.30
31527;DHT22;18136;42.236;-73.040;2023-05-16T11:14:06;10.90;79.70
31527;DHT22;18136;42.236;-73.040;2023-05-16T11:16:34;10.90;79.20
31527;DHT22;18136;42.236;-73.040;2023-05-16T11:19:10;10.90;79.80
31527;DHT22;18136;42.236;-73.040;2023-05-16T11:22:28;11.00;80.40
31527;DHT22;18136;42.236;-73.040;2023-05-16T11:25:06;11.00;80.60
31527;DHT22;18136;42.236;-73.040;2023-05-16T11:27:43;11.00;80.80
31527;DHT22;18136;42.236;-73.040;2023-05-16T11:32:37;11.00;80.20
31527;DHT22;18136;42.236;-73.040;2023-05-16T11:35:05;11.00;80.70
31527;DHT22;18136;42.236;-73.040;2023-05-16T11:37:32;11.00;80.50
31527;DHT22;18136;42.236;-73.040;2023-05-16T11:40:02;11.10;81.10
31527;DHT22;18136;42.236;-73.040;2023-05-16T11:42:34;11.10;82.80
31527;DHT22;18136;42.236;-73.040;2023-05-16T11:45:08;11.20;81.30
31527;DHT22;18136;42.236;-73.040;2023-05-16T11:47:39;11.20;80.70
31527;DHT22;18136;42.236;-73.040;2023-05-16T11:50:17;11.20;82.10
31527;DHT22;18136;42.236;-73.040;2023-05-16T11:52:47;11.20;81.10
31527;DHT22;18136;42.236;-73.040;2023-05-16T11:55:15;11.20;81.20
31527;DHT22;18136;42.236;-73.040;2023-05-16T11:57:43;11.20;81.40
31527;DHT22;18136;42.236;-73.040;2023-05-16T12:00:19;11.30;82.30
31527;DHT22;18136;42.236;-73.040;2023-05-16T12:02:47;11.30;82.80
31527;DHT22;18136;42.236;-73.040;2023-05-16T12:05:15;11.30;81.80
31527;DHT22;18136;42.236;-73.040;2023-05-16T12:07:46;11.30;82.80
31527;DHT22;18136;42.236;-73.040;2023-05-16T12:10:13;11.40;81.60
31527;DHT22;18136;42.236;-73.040;2023-05-16T12:12:42;11.40;82.40
31527;DHT22;18136;42.236;-73.040;2023-05-16T12:15:10;11.40;82.20
31527;DHT22;18136;42.236;-73.040;2023-05-16T12:17:37;11.50;81.60
31527;DHT22;18136;42.236;-73.040;2023-05-16T12:20:04;11.50;82.60
31527;DHT22;18136;42.236;-73.040;2023-05-16T12:22:34;11.50;83.00
31527;DHT22;18136;42.236;-73.040;2023-05-16T12:25:21;11.60;82.90
31527;DHT22;18136;42.236;-73.040;2023-05-16T12:27:48;11.70;82.60
31527;DHT22;18136;42.236;-73.040;2023-05-16T12:30:16;11.70;83.60
31527;DHT22;18136;42.236;-73.040;2023-05-16T12:32:43;11.90;82.70
31527;DHT22;18136;42.236;-73.040;2023-05-16T12:35:10;11.90;82.00
31527;DHT22;18136;42.236;-73.040;2023-05-16T12:37:37;12.00;83.70
31527;DHT22;18136;42.236;-73.040;2023-05-16T12:40:04;12.00;83.60
31527;DHT22;18136;42.236;-73.040;2023-05-16T12:42:30;12.10;82.30
31527;DHT22;18136;42.236;-73.040;2023-05-16T12:44:56;12.20;81.40
31527;DHT22;18136;42.236;-73.040;2023-05-16T12:47:23;12.30;80.70
31527;DHT22;18136;42.236;-73.040;2023-05-16T12:49:49;12.40;80.70
31527;DHT22;18136;42.236;-73.040;2023-05-16T12:52:19;12.40;78.70
31527;DHT22;18136;42.236;-73.040;2023-05-16T12:54:46;12.50;78.10
31527;DHT22;18136;42.236;-73.040;2023-05-16T12:57:13;12.50;78.60
31527;DHT22;18136;42.236;-73.040;2023-05-16T12:59:39;12.60;78.20
31527;DHT22;18136;42.236;-73.040;2023-05-16T13:02:06;12.70;77.90
31527;DHT22;18136;42.236;-73.040;2023-05-16T13:04:32;12.80;77.10
31527;DHT22;18136;42.236;-73.040;2023-05-16T13:06:58;12.90;75.40
31527;DHT22;18136;42.236;-73.040;2023-05-16T13:09:24;13.00;72.70
31527;DHT22;18136;42.236;-73.040;2023-05-16T13:11:51;13.20;74.80
31527;DHT22;18136;42.236;-73.040;2023-05-16T13:14:18;13.30;71.40
31527;DHT22;18136;42.236;-73.040;2023-05-16T13:16:44;13.50;72.00
31527;DHT22;18136;42.236;-73.040;2023-05-16T13:19:10;13.70;71.20
31527;DHT22;18136;42.236;-73.040;2023-05-16T13:21:36;13.80;70.10
31527;DHT22;18136;42.236;-73.040;2023-05-16T13:24:02;13.90;68.50
31527;DHT22;18136;42.236;-73.040;2023-05-16T13:26:29;14.00;69.70
31527;DHT22;18136;42.236;-73.040;2023-05-16T13:28:55;14.10;71.20
31527;DHT22;18136;42.236;-73.040;2023-05-16T13:31:22;14.30;69.90
31527;DHT22;18136;42.236;-73.040;2023-05-16T13:33:48;14.50;69.50
31527;DHT22;18136;42.236;-73.040;2023-05-16T13:36:14;14.60;72.30
31527;DHT22;18136;42.236;-73.040;2023-05-16T13:38:40;14.70;69.40
31527;DHT22;18136;42.236;-73.040;2023-05-16T13:41:07;14.90;69.60
31527;DHT22;18136;42.236;-73.040;2023-05-16T13:43:33;15.10;67.30
31527;DHT22;18136;42.236;-73.040;2023-05-16T13:46:00;15.10;66.80
31527;DHT22;18136;42.236;-73.040;2023-05-16T13:48:26;15.20;68.80
31527;DHT22;18136;42.236;-73.040;2023-05-16T13:50:52;15.30;69.40
31527;DHT22;18136;42.236;-73.040;2023-05-16T13:53:20;15.50;67.70
31527;DHT22;18136;42.236;-73.040;2023-05-16T13:55:46;15.70;68.60
31527;DHT22;18136;42.236;-73.040;2023-05-16T13:58:12;15.80;65.90
31527;DHT22;18136;42.236;-73.040;2023-05-16T14:00:38;15.90;69.50
31527;DHT22;18136;42.236;-73.040;2023-05-16T14:03:05;16.10;67.50
31527;DHT22;18136;42.236;-73.040;2023-05-16T14:05:31;16.30;66.00
31527;DHT22;18136;42.236;-73.040;2023-05-16T14:07:57;16.40;66.40
31527;DHT22;18136;42.236;-73.040;2023-05-16T14:10:23;16.40;65.10
31527;DHT22;18136;42.236;-73.040;2023-05-16T14:12:49;16.50;68.60
31527;DHT22;18136;42.236;-73.040;2023-05-16T14:15:16;16.70;66.30
31527;DHT22;18136;42.236;-73.040;2023-05-16T14:17:42;16.90;66.30
31527;DHT22;18136;42.236;-73.040;2023-05-16T14:20:09;16.90;63.40
31527;DHT22;18136;42.236;-73.040;2023-05-16T14:22:36;16.90;67.40
31527;DHT22;18136;42.236;-73.040;2023-05-16T14:25:02;17.20;66.60
31527;DHT22;18136;42.236;-73.040;2023-05-16T14:27:29;17.40;66.20
31527;DHT22;18136;42.236;-73.040;2023-05-16T14:29:55;17.50;65.40
31527;DHT22;18136;42.236;-73.040;2023-05-16T14:32:22;17.50;63.60
31527;DHT22;18136;42.236;-73.040;2023-05-16T14:34:48;17.60;66.40
31527;DHT22;18136;42.236;-73.040;2023-05-16T14:37:15;17.70;65.60
31527;DHT22;18136;42.236;-73.040;2023-05-16T14:39:45;18.00;63.30
31527;DHT22;18136;42.236;-73.040;2023-05-16T14:42:11;18.00;62.00
31527;DHT22;18136;42.236;-73.040;2023-05-16T14:44:37;17.90;62.00
31527;DHT22;18136;42.236;-73.040;2023-05-16T14:47:04;18.00;65.20
31527;DHT22;18136;42.236;-73.040;2023-05-16T14:49:31;18.20;64.80
31527;DHT22;18136;42.236;-73.040;2023-05-16T14:51:57;18.40;62.10
31527;DHT22;18136;42.236;-73.040;2023-05-16T14:54:23;18.30;61.70
31527;DHT22;18136;42.236;-73.040;2023-05-16T14:56:49;18.30;61.80
31527;DHT22;18136;42.236;-73.040;2023-05-16T14:59:19;18.30;63.70
31527;DHT22;18136;42.236;-73.040;2023-05-16T15:01:45;18.50;66.40
31527;DHT22;18136;42.236;-73.040;2023-05-16T15:04:11;18.90;63.00
31527;DHT22;18136;42.236;-73.040;2023-05-16T15:06:37;19.10;62.00
31527;DHT22;18136;42.236;-73.040;2023-05-16T15:09:03;19.30;63.90
31527;DHT22;18136;42.236;-73.040;2023-05-16T15:11:30;19.50;60.10
31527;DHT22;18136;42.236;-73.040;2023-05-16T15:13:56;19.60;60.50
31527;DHT22;18136;42.236;-73.040;2023-05-16T15:16:23;19.60;59.60
31527;DHT22;18136;42.236;-73.040;2023-05-16T15:18:49;19.70;60.40
31527;DHT22;18136;42.236;-73.040;2023-05-16T15:21:15;19.70;59.00
31527;DHT22;18136;42.236;-73.040;2023-05-16T15:23:41;19.80;59.60
31527;DHT22;18136;42.236;-73.040;2023-05-16T15:26:07;19.70;59.80
31527;DHT22;18136;42.236;-73.040;2023-05-16T15:28:34;19.70;61.40
31527;DHT22;18136;42.236;-73.040;2023-05-16T15:31:02;20.00;62.90
31527;DHT22;18136;42.236;-73.040;2023-05-16T15:33:28;20.30;59.30
31527;DHT22;18136;42.236;-73.040;2023-05-16T15:35:54;20.20;60.90